Time;durP1;ratioP1;P1;durP2;ratioP2;P2;SDS_P1;SDS_P2;PMS_P1;PMS_P2;Temp;Humidity;BMP_temperature;BMP_pressure;BME280_temperature;BME280_humidity;BME280_pressure;Samples;Min_cycle;Max_cycle;Signal;HPM_P1;HPM_P2
2021/10/11 00:02:22;;;;;;;;;62.25;49.00;;;;;;;;5062096;28;48164;-79
2021/10/11 00:04:48;;;;;;;;;57.75;46.50;;;;;;;;5078428;27;45508;-78
2021/10/11 00:07:13;;;;;;;;;62.25;50.50;;;;;;;;5078669;27;45485;-78
2021/10/11 00:09:38;;;;;;;;;61.00;49.00;;;;;;;;5078906;27;45355;-80
2021/10/11 00:12:03;;;;;;;;;59.25;45.50;;;;;;;;5074954;27;47145;-79
2021/10/11 00:14:29;;;;;;;;;60.50;48.75;;;;;;;;5078886;27;45481;-80
2021/10/11 00:16:54;;;;;;;;;62.00;49.50;;;;;;;;5079131;27;45457;-80
2021/10/11 00:19:19;;;;;;;;;65.00;51.00;;;;;;;;5082675;27;45418;-80
2021/10/11 00:21:45;;;;;;;;;61.00;48.25;;;;;;;;5078128;27;46084;-79
2021/10/11 00:24:11;;;;;;;;;62.75;51.00;;;;;;;;5075443;27;45557;-80
2021/10/11 00:26:36;;;;;;;;;62.75;49.75;;;;;;;;5076877;27;45361;-79
2021/10/11 00:29:01;;;;;;;;;60.00;49.25;;;;;;;;5077498;27;45462;-79
2021/10/11 00:31:26;;;;;;;;;66.25;50.75;;;;;;;;5076497;27;45374;-79
2021/10/11 00:33:51;;;;;;;;;62.00;50.00;;;;;;;;5077808;27;45335;-79
2021/10/11 00:36:17;;;;;;;;;66.50;50.25;;;;;;;;5076660;27;45469;-79
2021/10/11 00:38:42;;;;;;;;;64.25;48.75;;;;;;;;5075389;27;45524;-80
2021/10/11 00:41:07;;;;;;;;;59.75;48.00;;;;;;;;5080106;27;46906;-79
2021/10/11 00:43:32;;;;;;;;;67.00;53.75;;;;;;;;5077946;27;45346;-80
2021/10/11 00:45:58;;;;;;;;;66.50;52.00;;;;;;;;5078300;27;45418;-80
2021/10/11 00:48:23;;;;;;;;;65.25;50.75;;;;;;;;5076813;27;45270;-78
2021/10/11 00:50:48;;;;;;;;;64.25;49.25;;;;;;;;5074966;27;47201;-79
2021/10/11 00:53:15;;;;;;;;;67.00;51.25;;;;;;;;5080404;27;45524;-79
2021/10/11 00:55:40;;;;;;;;;62.25;48.50;;;;;;;;5078261;27;45529;-79
2021/10/11 00:58:06;;;;;;;;;64.75;50.50;;;;;;;;5078314;27;45552;-80
2021/10/11 01:00:31;;;;;;;;;65.25;49.50;;;;;;;;5077871;27;45584;-79
2021/10/11 01:02:56;;;;;;;;;68.25;51.75;;;;;;;;5073626;27;45484;-80
2021/10/11 01:05:22;;;;;;;;;60.00;48.50;;;;;;;;5080076;27;45433;-79
2021/10/11 01:07:47;;;;;;;;;69.25;55.00;;;;;;;;5076520;27;45406;-79
2021/10/11 01:10:13;;;;;;;;;67.50;54.50;;;;;;;;5076205;27;45644;-79
2021/10/11 01:12:38;;;;;;;;;58.75;46.25;;;;;;;;5077889;27;45457;-79
2021/10/11 01:15:04;;;;;;;;;62.00;50.00;;;;;;;;5074323;27;45463;-78
2021/10/11 01:17:29;;;;;;;;;66.25;52.00;;;;;;;;5077805;27;47012;-79
2021/10/11 01:19:57;;;;;;;;;63.50;52.25;;;;;;;;5078533;27;45517;-79
2021/10/11 01:22:32;;;;;;;;;66.25;51.50;;;;;;;;5077656;27;45468;-80
2021/10/11 01:24:57;;;;;;;;;63.50;50.00;;;;;;;;5077183;27;45590;-80
2021/10/11 01:27:28;;;;;;;;;63.75;50.75;;;;;;;;5058575;27;45581;-78
2021/10/11 01:29:53;;;;;;;;;65.00;51.75;;;;;;;;5072931;27;47361;-78
2021/10/11 01:32:18;;;;;;;;;69.00;51.75;;;;;;;;5078961;27;45415;-81
2021/10/11 01:34:44;;;;;;;;;65.75;51.25;;;;;;;;5077273;27;45327;-78
2021/10/11 01:37:10;;;;;;;;;62.25;50.00;;;;;;;;5077787;27;45593;-78
2021/10/11 01:39:38;;;;;;;;;66.50;52.75;;;;;;;;5080642;27;47030;-80
2021/10/11 01:42:04;;;;;;;;;61.25;48.75;;;;;;;;5083191;27;45153;-78
2021/10/11 01:44:29;;;;;;;;;62.50;50.50;;;;;;;;5081649;27;45441;-80
2021/10/11 01:46:54;;;;;;;;;69.25;53.75;;;;;;;;5079637;27;45292;-80
2021/10/11 01:49:19;;;;;;;;;68.00;52.50;;;;;;;;5078704;27;47481;-80
2021/10/11 01:51:45;;;;;;;;;59.25;48.25;;;;;;;;5080630;27;45375;-80
2021/10/11 01:54:10;;;;;;;;;60.25;47.50;;;;;;;;5078039;27;45489;-78
2021/10/11 01:56:35;;;;;;;;;63.00;49.50;;;;;;;;5079749;27;45505;-78
2021/10/11 01:59:00;;;;;;;;;65.75;51.25;;;;;;;;5081568;27;46095;-79
2021/10/11 02:01:26;;;;;;;;;59.00;48.50;;;;;;;;5080109;27;45433;-79
2021/10/11 02:03:51;;;;;;;;;63.25;48.00;;;;;;;;5080595;27;45318;-78
2021/10/11 02:06:16;;;;;;;;;61.25;45.50;;;;;;;;5078838;27;45406;-79
2021/10/11 02:08:41;;;;;;;;;66.00;51.50;;;;;;;;5077822;27;46157;-79
2021/10/11 02:11:07;;;;;;;;;58.75;46.25;;;;;;;;5082464;27;45292;-79
2021/10/11 02:13:32;;;;;;;;;65.25;50.50;;;;;;;;5080400;27;46510;-79
2021/10/11 02:15:58;;;;;;;;;58.25;47.00;;;;;;;;5061680;27;45533;-79
2021/10/11 02:18:23;;;;;;;;;68.50;50.75;;;;;;;;5079038;27;46347;-79
2021/10/11 02:20:48;;;;;;;;;57.50;47.25;;;;;;;;5076253;27;45341;-79
2021/10/11 02:23:13;;;;;;;;;60.00;47.00;;;;;;;;5082032;27;45455;-79
2021/10/11 02:25:39;;;;;;;;;60.25;44.25;;;;;;;;5078721;27;45410;-81
2021/10/11 02:28:07;;;;;;;;;53.25;44.75;;;;;;;;5078356;27;45553;-79
2021/10/11 02:30:32;;;;;;;;;53.50;44.75;;;;;;;;5079698;27;45493;-78
2021/10/11 02:32:58;;;;;;;;;52.50;42.00;;;;;;;;5075928;27;45505;-79
2021/10/11 02:35:23;;;;;;;;;56.00;43.25;;;;;;;;5081916;27;45512;-79
2021/10/11 02:37:48;;;;;;;;;52.00;44.00;;;;;;;;5080206;27;46288;-79
2021/10/11 02:40:14;;;;;;;;;53.50;40.75;;;;;;;;5079968;27;45390;-80
2021/10/11 02:42:39;;;;;;;;;55.00;43.75;;;;;;;;5079954;27;45559;-80
2021/10/11 02:45:07;;;;;;;;;48.75;38.25;;;;;;;;5075935;27;45560;-79
2021/10/11 02:47:32;;;;;;;;;53.00;41.75;;;;;;;;5079660;27;45578;-80
2021/10/11 02:49:57;;;;;;;;;55.00;40.00;;;;;;;;5079693;27;45315;-81
2021/10/11 02:52:23;;;;;;;;;54.00;42.00;;;;;;;;5079598;27;45533;-78
2021/10/11 02:54:48;;;;;;;;;56.00;43.50;;;;;;;;5079363;27;45537;-79
2021/10/11 02:57:13;;;;;;;;;50.75;41.25;;;;;;;;5077027;27;46177;-79
2021/10/11 02:59:39;;;;;;;;;47.25;39.75;;;;;;;;5077061;27;45489;-81
2021/10/11 03:02:04;;;;;;;;;50.25;38.25;;;;;;;;5080936;27;45492;-79
2021/10/11 03:04:29;;;;;;;;;44.50;35.50;;;;;;;;5077877;27;45500;-79
2021/10/11 03:06:55;;;;;;;;;48.00;37.75;;;;;;;;5077704;27;45421;-78
2021/10/11 03:09:20;;;;;;;;;44.75;35.25;;;;;;;;5058885;27;45463;-78
2021/10/11 03:11:45;;;;;;;;;34.75;32.25;;;;;;;;5058052;27;45417;-78
2021/10/11 03:14:10;;;;;;;;;47.50;37.50;;;;;;;;5080790;27;45371;-78
2021/10/11 03:16:36;;;;;;;;;38.50;34.25;;;;;;;;5078983;27;46959;-80
2021/10/11 03:19:01;;;;;;;;;31.75;30.00;;;;;;;;5078948;27;45503;-78
2021/10/11 03:21:26;;;;;;;;;36.75;28.50;;;;;;;;5082030;27;45400;-78
2021/10/11 03:23:52;;;;;;;;;35.75;29.25;;;;;;;;5074634;27;45193;-79
2021/10/11 03:26:18;;;;;;;;;32.75;28.25;;;;;;;;5080330;27;45356;-78
2021/10/11 03:28:43;;;;;;;;;30.00;26.25;;;;;;;;5078213;27;45285;-78
2021/10/11 03:31:08;;;;;;;;;26.75;26.25;;;;;;;;5078795;27;45236;-79
2021/10/11 03:33:34;;;;;;;;;28.50;26.50;;;;;;;;5078822;27;45569;-78
2021/10/11 03:35:59;;;;;;;;;32.25;30.00;;;;;;;;5074467;27;45306;-80
2021/10/11 03:38:24;;;;;;;;;35.25;33.75;;;;;;;;5080125;27;45319;-79
2021/10/11 03:40:49;;;;;;;;;27.00;26.50;;;;;;;;5078489;27;45475;-79
2021/10/11 03:43:14;;;;;;;;;28.75;24.50;;;;;;;;5076705;27;45425;-79
2021/10/11 03:45:40;;;;;;;;;23.25;21.50;;;;;;;;5076756;27;45407;-77
2021/10/11 03:48:05;;;;;;;;;24.50;23.00;;;;;;;;5075460;27;45632;-77
2021/10/11 03:50:30;;;;;;;;;20.25;17.25;;;;;;;;5078652;27;45277;-80
2021/10/11 03:52:55;;;;;;;;;17.25;15.00;;;;;;;;5079518;27;45594;-79
2021/10/11 03:55:21;;;;;;;;;26.50;20.50;;;;;;;;5077888;27;46300;-79
2021/10/11 03:57:46;;;;;;;;;24.75;22.50;;;;;;;;5077909;27;45411;-79
2021/10/11 04:00:11;;;;;;;;;30.00;22.25;;;;;;;;5075321;27;45414;-79
2021/10/11 04:02:37;;;;;;;;;21.50;19.75;;;;;;;;5076485;27;45350;-77
2021/10/11 04:05:02;;;;;;;;;24.25;22.75;;;;;;;;5079558;27;45957;-80
2021/10/11 04:07:27;;;;;;;;;21.25;18.00;;;;;;;;5078149;27;45365;-78
2021/10/11 04:09:55;;;;;;;;;21.25;18.50;;;;;;;;5078070;27;45342;-78
2021/10/11 04:12:21;;;;;;;;;27.00;23.50;;;;;;;;5076214;27;45486;-79
2021/10/11 04:14:47;;;;;;;;;22.75;19.25;;;;;;;;5073978;27;45377;-79
2021/10/11 04:17:12;;;;;;;;;41.50;34.50;;;;;;;;5079609;27;45351;-79
2021/10/11 04:19:37;;;;;;;;;31.00;23.75;;;;;;;;5077955;27;45397;-78
2021/10/11 04:22:03;;;;;;;;;21.75;18.00;;;;;;;;5076373;27;45461;-80
2021/10/11 04:24:28;;;;;;;;;26.25;20.00;;;;;;;;5075472;27;46745;-80
2021/10/11 04:26:53;;;;;;;;;20.75;18.00;;;;;;;;5072647;28;45491;-78
2021/10/11 04:29:18;;;;;;;;;20.75;18.00;;;;;;;;5079534;27;45482;-78
2021/10/11 04:31:43;;;;;;;;;18.50;16.25;;;;;;;;5077037;27;45517;-77
2021/10/11 04:34:09;;;;;;;;;15.50;14.25;;;;;;;;5080787;27;46390;-81
2021/10/11 04:36:34;;;;;;;;;24.75;20.25;;;;;;;;5080178;27;45260;-83
2021/10/11 04:39:02;;;;;;;;;18.50;16.50;;;;;;;;5072149;27;45317;-80
2021/10/11 04:41:27;;;;;;;;;21.75;18.75;;;;;;;;5077627;27;45385;-78
2021/10/11 04:43:52;;;;;;;;;23.75;21.25;;;;;;;;5077135;27;45349;-83
2021/10/11 04:46:17;;;;;;;;;21.50;18.25;;;;;;;;5076821;27;45323;-84
2021/10/11 04:48:45;;;;;;;;;26.75;26.00;;;;;;;;5076707;27;45387;-78
2021/10/11 04:51:11;;;;;;;;;19.25;18.25;;;;;;;;5074600;27;45413;-77
2021/10/11 04:53:36;;;;;;;;;18.25;17.25;;;;;;;;5057129;28;46184;-78
2021/10/11 04:56:01;;;;;;;;;15.50;14.25;;;;;;;;5077904;27;45359;-76
2021/10/11 04:58:26;;;;;;;;;10.75;8.25;;;;;;;;5076826;27;45276;-77
2021/10/11 05:00:51;;;;;;;;;15.50;11.25;;;;;;;;5075899;27;45477;-77
2021/10/11 05:03:17;;;;;;;;;13.00;12.00;;;;;;;;5073741;27;45299;-76
2021/10/11 05:05:42;;;;;;;;;13.50;12.25;;;;;;;;5073435;27;45554;-77
2021/10/11 05:08:07;;;;;;;;;14.75;12.50;;;;;;;;5079074;27;45291;-78
2021/10/11 05:10:33;;;;;;;;;13.00;13.00;;;;;;;;5075502;27;45477;-77
2021/10/11 05:12:58;;;;;;;;;16.00;15.00;;;;;;;;5078153;27;46207;-78
2021/10/11 05:15:23;;;;;;;;;13.25;11.00;;;;;;;;5079618;27;45447;-77
2021/10/11 05:17:48;;;;;;;;;13.50;11.25;;;;;;;;5076390;27;45465;-76
2021/10/11 05:20:14;;;;;;;;;19.50;14.75;;;;;;;;5082281;27;45183;-79
2021/10/11 05:22:39;;;;;;;;;12.50;12.50;;;;;;;;5079888;27;45620;-78
2021/10/11 05:25:05;;;;;;;;;18.75;14.75;;;;;;;;5079178;27;45193;-77
2021/10/11 05:27:32;;;;;;;;;17.00;14.50;;;;;;;;5080037;27;45395;-78
2021/10/11 05:29:57;;;;;;;;;15.25;14.00;;;;;;;;5074735;27;45460;-76
2021/10/11 05:32:22;;;;;;;;;13.00;12.00;;;;;;;;5081588;27;45339;-77
2021/10/11 05:34:48;;;;;;;;;16.00;12.00;;;;;;;;5079249;27;45430;-78
2021/10/11 05:37:13;;;;;;;;;13.75;13.25;;;;;;;;5079473;27;45348;-77
2021/10/11 05:39:38;;;;;;;;;17.00;13.75;;;;;;;;5077900;27;45437;-78
2021/10/11 05:42:06;;;;;;;;;16.25;14.75;;;;;;;;5055949;27;47106;-79
2021/10/11 05:44:31;;;;;;;;;20.25;14.25;;;;;;;;5078804;27;45365;-78
2021/10/11 05:46:56;;;;;;;;;15.75;12.50;;;;;;;;5079809;27;45572;-78
2021/10/11 05:49:22;;;;;;;;;12.50;12.50;;;;;;;;5078959;27;45438;-78
2021/10/11 05:51:47;;;;;;;;;13.75;13.00;;;;;;;;5078724;27;45494;-76
2021/10/11 05:54:13;;;;;;;;;18.25;15.50;;;;;;;;5080738;27;45302;-77
2021/10/11 05:56:38;;;;;;;;;18.50;14.50;;;;;;;;5077710;27;45491;-87
2021/10/11 05:59:03;;;;;;;;;12.25;11.25;;;;;;;;5081939;27;45326;-87
2021/10/11 06:01:28;;;;;;;;;19.75;18.75;;;;;;;;5089255;27;45462;-86
2021/10/11 06:03:54;;;;;;;;;13.75;13.00;;;;;;;;5086204;27;45339;-86
2021/10/11 06:06:19;;;;;;;;;17.25;14.00;;;;;;;;5080034;27;45218;-86
2021/10/11 06:08:44;;;;;;;;;13.00;12.50;;;;;;;;5077044;27;45429;-81
2021/10/11 06:11:14;;;;;;;;;14.00;12.00;;;;;;;;5096859;27;46241;-87
2021/10/11 06:13:39;;;;;;;;;16.50;13.25;;;;;;;;5084345;27;45371;-87
2021/10/11 06:16:04;;;;;;;;;15.50;13.25;;;;;;;;5079964;27;45316;-85
2021/10/11 06:18:30;;;;;;;;;15.25;12.75;;;;;;;;5079838;27;45528;-85
2021/10/11 06:20:55;;;;;;;;;16.50;14.00;;;;;;;;5077146;28;45382;-86
2021/10/11 06:23:21;;;;;;;;;15.00;12.25;;;;;;;;5092728;27;45437;-87
2021/10/11 06:25:46;;;;;;;;;13.25;10.50;;;;;;;;5060399;28;45448;-86
2021/10/11 06:28:14;;;;;;;;;11.50;11.50;;;;;;;;5078458;27;45379;-86
2021/10/11 06:30:39;;;;;;;;;16.75;15.00;;;;;;;;5080208;27;46254;-87
2021/10/11 06:33:04;;;;;;;;;16.75;13.50;;;;;;;;5074104;28;45378;-86
2021/10/11 06:35:30;;;;;;;;;17.75;15.00;;;;;;;;5090765;27;45235;-86
2021/10/11 06:37:55;;;;;;;;;13.75;10.25;;;;;;;;5092554;27;45474;-86
2021/10/11 06:40:20;;;;;;;;;12.00;10.75;;;;;;;;5065537;28;46983;-87
2021/10/11 06:42:45;;;;;;;;;14.25;12.00;;;;;;;;5078370;27;45187;-87
2021/10/11 06:45:10;;;;;;;;;13.00;10.00;;;;;;;;5071290;27;45296;-87
2021/10/11 06:47:36;;;;;;;;;14.00;14.00;;;;;;;;5078585;27;45418;-86
2021/10/11 06:50:01;;;;;;;;;14.75;11.50;;;;;;;;5082800;27;45564;-85
2021/10/11 06:52:26;;;;;;;;;18.00;12.75;;;;;;;;5081686;27;45406;-86
2021/10/11 06:54:51;;;;;;;;;15.00;13.75;;;;;;;;5083403;27;45334;-86
2021/10/11 06:57:16;;;;;;;;;9.00;8.00;;;;;;;;5090889;27;45383;-86
2021/10/11 06:59:42;;;;;;;;;13.25;12.25;;;;;;;;5077846;27;45645;-86
2021/10/11 07:02:07;;;;;;;;;13.25;11.00;;;;;;;;5079533;27;45387;-86
2021/10/11 07:04:33;;;;;;;;;14.25;12.00;;;;;;;;5077350;27;45461;-86
2021/10/11 07:06:58;;;;;;;;;17.25;16.00;;;;;;;;5078072;27;45488;-86
2021/10/11 07:09:23;;;;;;;;;12.00;10.25;;;;;;;;5059946;27;46102;-87
2021/10/11 07:11:50;;;;;;;;;17.00;13.25;;;;;;;;5092530;27;45302;-86
2021/10/11 07:14:15;;;;;;;;;12.75;11.00;;;;;;;;5096448;27;45434;-85
2021/10/11 07:16:41;;;;;;;;;12.25;11.00;;;;;;;;5062338;27;45257;-84
2021/10/11 07:19:06;;;;;;;;;10.75;9.50;;;;;;;;5080399;27;45958;-86
2021/10/11 07:21:31;;;;;;;;;8.75;8.25;;;;;;;;5091394;27;45338;-86
2021/10/11 07:23:56;;;;;;;;;10.75;10.75;;;;;;;;5073506;27;45329;-81
2021/10/11 07:26:22;;;;;;;;;8.25;8.25;;;;;;;;5079772;27;45619;-82
2021/10/11 07:28:47;;;;;;;;;15.00;14.75;;;;;;;;5077217;27;46231;-81
2021/10/11 07:31:12;;;;;;;;;12.00;10.00;;;;;;;;5077004;27;45422;-80
2021/10/11 07:33:37;;;;;;;;;7.75;6.00;;;;;;;;5077398;27;45368;-80
2021/10/11 07:36:02;;;;;;;;;11.00;9.25;;;;;;;;5072820;27;45319;-82
2021/10/11 07:38:28;;;;;;;;;8.75;8.25;;;;;;;;5078779;27;45442;-81
2021/10/11 07:40:53;;;;;;;;;7.00;5.75;;;;;;;;5078090;27;45449;-82
2021/10/11 07:43:19;;;;;;;;;4.50;4.50;;;;;;;;5077581;27;45512;-81
2021/10/11 07:45:44;;;;;;;;;6.50;4.50;;;;;;;;5077995;27;45489;-82
2021/10/11 07:48:09;;;;;;;;;7.50;5.00;;;;;;;;5074175;27;45512;-83
2021/10/11 07:50:34;;;;;;;;;7.25;5.75;;;;;;;;5076764;27;45335;-81
2021/10/11 07:53:00;;;;;;;;;5.00;5.00;;;;;;;;5078470;27;45491;-79
2021/10/11 07:55:25;;;;;;;;;5.00;4.00;;;;;;;;5077049;27;45428;-82
2021/10/11 07:57:50;;;;;;;;;5.00;4.00;;;;;;;;5077028;27;45946;-81
2021/10/11 08:00:20;;;;;;;;;6.00;6.00;;;;;;;;5076185;27;45390;-80
2021/10/11 08:02:45;;;;;;;;;6.25;3.50;;;;;;;;5074091;27;45403;-82
2021/10/11 08:05:11;;;;;;;;;4.25;3.00;;;;;;;;5083399;27;45454;-82
2021/10/11 08:07:36;;;;;;;;;5.50;4.25;;;;;;;;5076739;27;45493;-80
2021/10/11 08:10:02;;;;;;;;;4.00;4.00;;;;;;;;5075619;27;45433;-81
2021/10/11 08:12:27;;;;;;;;;5.50;4.25;;;;;;;;5075618;27;45430;-81
2021/10/11 08:14:53;;;;;;;;;3.50;3.50;;;;;;;;5071850;27;45479;-81
2021/10/11 08:17:18;;;;;;;;;10.00;8.75;;;;;;;;5078017;27;46073;-81
2021/10/11 08:19:43;;;;;;;;;5.00;5.00;;;;;;;;5077316;27;45314;-82
2021/10/11 08:22:08;;;;;;;;;8.75;7.00;;;;;;;;5076997;27;45356;-81
2021/10/11 08:24:34;;;;;;;;;13.25;8.00;;;;;;;;5076605;27;45198;-81
2021/10/11 08:26:59;;;;;;;;;10.50;8.75;;;;;;;;5072213;27;45299;-81
2021/10/11 08:29:25;;;;;;;;;8.50;5.25;;;;;;;;5078720;27;45271;-82
2021/10/11 08:31:51;;;;;;;;;4.50;4.50;;;;;;;;5063538;27;45326;-81
2021/10/11 08:34:16;;;;;;;;;8.00;5.00;;;;;;;;5081767;27;45502;-81
2021/10/11 08:36:41;;;;;;;;;7.25;7.25;;;;;;;;5076822;27;46125;-83
2021/10/11 08:39:06;;;;;;;;;7.25;4.00;;;;;;;;5072115;27;45478;-80
2021/10/11 08:41:32;;;;;;;;;0.75;0.00;;;;;;;;5077316;27;45358;-80
2021/10/11 08:43:57;;;;;;;;;5.25;4.00;;;;;;;;5076680;27;45569;-81
2021/10/11 08:46:23;;;;;;;;;5.00;5.00;;;;;;;;5084185;27;46232;-80
2021/10/11 08:48:49;;;;;;;;;6.75;6.75;;;;;;;;5085302;27;45426;-80
2021/10/11 08:51:14;;;;;;;;;5.25;4.00;;;;;;;;5071962;27;45486;-81
2021/10/11 08:53:39;;;;;;;;;4.00;3.00;;;;;;;;5074866;27;45425;-81
2021/10/11 08:56:04;;;;;;;;;4.25;2.75;;;;;;;;5075796;27;46377;-82
2021/10/11 08:58:42;;;;;;;;;2.75;2.75;;;;;;;;5075029;27;45425;-80
2021/10/11 09:01:08;;;;;;;;;19.50;15.50;;;;;;;;5075069;27;45430;-81
2021/10/11 09:03:33;;;;;;;;;5.25;4.00;;;;;;;;5076069;27;45368;-80
2021/10/11 09:06:06;;;;;;;;;2.50;1.25;;;;;;;;5071897;27;46378;-81
2021/10/11 09:08:32;;;;;;;;;3.00;3.00;;;;;;;;5076278;27;47765;-80
2021/10/11 09:10:59;;;;;;;;;5.75;3.00;;;;;;;;5075611;27;45378;-80
2021/10/11 09:13:45;;;;;;;;;4.00;2.25;;;;;;;;5076421;27;45430;-81
2021/10/11 09:16:23;;;;;;;;;9.00;3.25;;;;;;;;5075838;27;46260;-80
2021/10/11 09:18:54;;;;;;;;;5.00;5.00;;;;;;;;5073955;27;45516;-81
2021/10/11 09:21:33;;;;;;;;;8.00;6.75;;;;;;;;5087473;27;45400;-80
2021/10/11 09:24:02;;;;;;;;;3.00;3.00;;;;;;;;5055648;27;45446;-80
2021/10/11 09:26:39;;;;;;;;;3.00;2.00;;;;;;;;5076906;27;46312;-78
2021/10/11 09:29:04;;;;;;;;;4.00;2.25;;;;;;;;5077293;27;45481;-81
2021/10/11 09:31:37;;;;;;;;;3.25;3.25;;;;;;;;5074943;27;45371;-81
2021/10/11 09:34:02;;;;;;;;;6.50;2.75;;;;;;;;5075806;27;45515;-80
2021/10/11 09:36:29;;;;;;;;;3.25;1.50;;;;;;;;5075095;27;46361;-80
2021/10/11 09:39:01;;;;;;;;;4.00;2.75;;;;;;;;5071417;27;45441;-82
2021/10/11 09:41:26;;;;;;;;;2.75;2.00;;;;;;;;5083819;27;45378;-81
2021/10/11 09:43:51;;;;;;;;;2.00;2.00;;;;;;;;5073959;27;45333;-81
2021/10/11 09:46:19;;;;;;;;;3.00;3.00;;;;;;;;5074779;27;45496;-80
2021/10/11 09:48:48;;;;;;;;;5.25;3.00;;;;;;;;5074003;27;45234;-81
2021/10/11 09:51:13;;;;;;;;;3.75;2.50;;;;;;;;5071992;27;45489;-81
2021/10/11 09:53:38;;;;;;;;;4.00;4.00;;;;;;;;5087607;27;45455;-81
2021/10/11 09:56:04;;;;;;;;;4.50;3.00;;;;;;;;5074491;27;45419;-82
2021/10/11 09:58:30;;;;;;;;;6.50;4.75;;;;;;;;5076937;27;45472;-81
2021/10/11 10:00:55;;;;;;;;;4.00;4.00;;;;;;;;5084078;27;45320;-81
2021/10/11 10:03:21;;;;;;;;;3.75;3.75;;;;;;;;5093469;27;45392;-81
2021/10/11 10:05:47;;;;;;;;;3.00;3.00;;;;;;;;5076655;27;46140;-80
2021/10/11 10:08:20;;;;;;;;;6.25;4.25;;;;;;;;5094098;27;45325;-80
2021/10/11 10:10:48;;;;;;;;;2.00;2.00;;;;;;;;5080402;27;45485;-80
2021/10/11 10:13:18;;;;;;;;;3.00;2.50;;;;;;;;5076674;27;45447;-81
2021/10/11 10:15:43;;;;;;;;;3.25;3.25;;;;;;;;5077046;27;46373;-81
2021/10/11 10:18:10;;;;;;;;;4.00;2.00;;;;;;;;5075673;27;45371;-81
2021/10/11 10:20:36;;;;;;;;;3.25;3.25;;;;;;;;5078101;27;45433;-81
2021/10/11 10:23:02;;;;;;;;;4.50;2.00;;;;;;;;5079983;27;45448;-80
2021/10/11 10:25:27;;;;;;;;;4.00;3.00;;;;;;;;5078618;27;47653;-79
2021/10/11 10:28:04;;;;;;;;;4.75;2.00;;;;;;;;5078701;27;45419;-81
2021/10/11 10:30:29;;;;;;;;;4.00;4.00;;;;;;;;5079314;27;45289;-80
2021/10/11 10:32:59;;;;;;;;;5.75;5.00;;;;;;;;5074371;27;45269;-81
2021/10/11 10:35:26;;;;;;;;;3.00;3.00;;;;;;;;5087979;27;46319;-81
2021/10/11 10:37:51;;;;;;;;;5.50;5.50;;;;;;;;5078679;27;45375;-81
2021/10/11 10:40:18;;;;;;;;;8.50;7.25;;;;;;;;5078766;27;45450;-80
2021/10/11 10:42:44;;;;;;;;;6.75;6.75;;;;;;;;5077568;27;45533;-80
2021/10/11 10:45:17;;;;;;;;;2.00;2.00;;;;;;;;5074939;27;47073;-80
2021/10/11 10:47:42;;;;;;;;;7.00;6.25;;;;;;;;5075554;27;45428;-81
2021/10/11 10:50:19;;;;;;;;;2.50;2.50;;;;;;;;5079564;27;45359;-82
2021/10/11 10:52:49;;;;;;;;;4.50;3.75;;;;;;;;5075980;27;45491;-80
2021/10/11 10:55:14;;;;;;;;;2.75;2.00;;;;;;;;5075842;27;45722;-80
2021/10/11 10:57:41;;;;;;;;;3.67;2.33;;;;;;;;5077699;27;45474;-81
2021/10/11 11:00:13;;;;;;;;;3.00;2.00;;;;;;;;5075947;27;45624;-81
2021/10/11 11:02:44;;;;;;;;;3.00;3.00;;;;;;;;5075955;27;45420;-82
2021/10/11 11:05:10;;;;;;;;;3.00;2.00;;;;;;;;5077196;27;47162;-80
2021/10/11 11:07:38;;;;;;;;;4.00;4.00;;;;;;;;5077975;27;45215;-78
2021/10/11 11:10:10;;;;;;;;;3.00;3.00;;;;;;;;5077700;27;45603;-79
2021/10/11 11:12:37;;;;;;;;;6.00;2.67;;;;;;;;5077773;27;45289;-78
2021/10/11 11:15:05;;;;;;;;;2.33;2.33;;;;;;;;5073502;27;46038;-79
2021/10/11 11:17:31;;;;;;;;;6.33;6.00;;;;;;;;5078410;27;45624;-78
2021/10/11 11:19:56;;;;;;;;;2.67;2.67;;;;;;;;5076513;27;45446;-79
2021/10/11 11:22:31;;;;;;;;;2.33;2.33;;;;;;;;5077431;27;45501;-79
2021/10/11 11:25:00;;;;;;;;;2.33;2.33;;;;;;;;5077286;27;46504;-80
2021/10/11 11:27:29;;;;;;;;;3.00;3.00;;;;;;;;5077954;27;45305;-80
2021/10/11 11:29:55;;;;;;;;;3.67;3.67;;;;;;;;5071770;27;45549;-80
2021/10/11 11:32:21;;;;;;;;;3.33;2.33;;;;;;;;5078611;27;45473;-81
2021/10/11 11:34:46;;;;;;;;;5.00;4.00;;;;;;;;5056246;28;47821;-80
2021/10/11 11:37:11;;;;;;;;;5.67;4.00;;;;;;;;5076520;27;45319;-80
2021/10/11 11:39:37;;;;;;;;;3.00;3.00;;;;;;;;5077428;27;45537;-80
2021/10/11 11:42:03;;;;;;;;;3.33;2.00;;;;;;;;5072949;27;45441;-80
2021/10/11 11:44:28;;;;;;;;;3.33;2.00;;;;;;;;5078314;27;45995;-79
2021/10/11 11:46:59;;;;;;;;;2.00;2.00;;;;;;;;5077125;27;45402;-80
2021/10/11 11:49:24;;;;;;;;;3.00;2.67;;;;;;;;5076111;27;45392;-78
2021/10/11 11:51:50;;;;;;;;;4.33;4.00;;;;;;;;5076124;27;45519;-76
2021/10/11 11:54:16;;;;;;;;;3.00;2.00;;;;;;;;5074460;27;46123;-80
2021/10/11 11:56:41;;;;;;;;;3.00;3.00;;;;;;;;5074821;27;45662;-80
2021/10/11 11:59:07;;;;;;;;;4.00;2.33;;;;;;;;5078679;27;45480;-81
2021/10/11 12:01:32;;;;;;;;;4.00;2.00;;;;;;;;5076636;27;45389;-82
2021/10/11 12:03:59;;;;;;;;;5.67;2.00;;;;;;;;5076320;27;45946;-81
2021/10/11 12:06:31;;;;;;;;;4.00;4.00;;;;;;;;5076102;27;45441;-79
2021/10/11 12:08:57;;;;;;;;;2.33;2.33;;;;;;;;5055238;28;45257;-79
2021/10/11 12:11:22;;;;;;;;;2.00;2.00;;;;;;;;5078586;27;45523;-81
2021/10/11 12:13:48;;;;;;;;;2.33;2.33;;;;;;;;5074654;27;46180;-80
2021/10/11 12:16:19;;;;;;;;;3.67;3.67;;;;;;;;5076175;27;45364;-80
2021/10/11 12:18:47;;;;;;;;;2.67;2.67;;;;;;;;5075263;27;45545;-79
2021/10/11 12:21:26;;;;;;;;;2.00;1.33;;;;;;;;5073540;27;45403;-76
2021/10/11 12:23:53;;;;;;;;;2.67;2.67;;;;;;;;5072280;27;45446;-79
2021/10/11 12:26:19;;;;;;;;;4.67;4.67;;;;;;;;5078816;27;45591;-80
2021/10/11 12:29:06;;;;;;;;;3.67;3.00;;;;;;;;5076293;27;45579;-80
2021/10/11 12:31:32;;;;;;;;;1.67;1.67;;;;;;;;5076277;27;45620;-79
2021/10/11 12:34:02;;;;;;;;;3.67;3.67;;;;;;;;5076478;27;47179;-77
2021/10/11 12:36:28;;;;;;;;;7.00;4.00;;;;;;;;5076146;27;45443;-79
2021/10/11 12:38:53;;;;;;;;;3.00;3.00;;;;;;;;5072285;27;45529;-80
2021/10/11 12:41:19;;;;;;;;;6.33;3.67;;;;;;;;5077883;27;45351;-80
2021/10/11 12:43:52;;;;;;;;;3.00;2.00;;;;;;;;5076436;27;46511;-79
2021/10/11 12:46:17;;;;;;;;;4.00;4.00;;;;;;;;5076269;27;45539;-80
2021/10/11 12:48:56;;;;;;;;;2.67;2.67;;;;;;;;5075857;27;45320;-80
2021/10/11 12:51:31;;;;;;;;;4.00;4.00;;;;;;;;5073486;27;45346;-80
2021/10/11 12:54:02;;;;;;;;;4.00;3.00;;;;;;;;5055470;28;46182;-78
2021/10/11 12:56:28;;;;;;;;;4.00;4.00;;;;;;;;5085466;27;45282;-80
2021/10/11 12:59:01;;;;;;;;;3.00;3.00;;;;;;;;5076476;27;45499;-79
2021/10/11 13:01:26;;;;;;;;;5.33;3.33;;;;;;;;5076419;27;45372;-84
2021/10/11 13:03:52;;;;;;;;;5.67;3.67;;;;;;;;5076730;27;47384;-84
2021/10/11 13:06:24;;;;;;;;;1.00;1.00;;;;;;;;5074461;27;45423;-83
2021/10/11 13:08:50;;;;;;;;;4.00;4.00;;;;;;;;5055295;28;47806;-83
2021/10/11 13:11:15;;;;;;;;;3.67;3.67;;;;;;;;5078983;27;45327;-83
2021/10/11 13:13:41;;;;;;;;;4.00;4.00;;;;;;;;5064321;27;47099;-83
2021/10/11 13:16:06;;;;;;;;;3.00;3.00;;;;;;;;5083618;27;45446;-84
2021/10/11 13:18:31;;;;;;;;;4.00;3.33;;;;;;;;5076721;27;45875;-84
2021/10/11 13:20:57;;;;;;;;;6.00;5.00;;;;;;;;5071209;28;45300;-79
2021/10/11 13:23:22;;;;;;;;;6.67;5.00;;;;;;;;5078202;27;45447;-85
2021/10/11 13:25:47;;;;;;;;;4.33;4.00;;;;;;;;5076020;27;45474;-80
2021/10/11 13:28:13;;;;;;;;;4.67;2.67;;;;;;;;5074544;27;45377;-80
2021/10/11 14:29:52;;;;;;;;;5.50;5.00;;;;;;;;5012569;28;45452;-79
2021/10/11 15:59:49;;;;;;;;;6.00;3.25;;;;;;;;5024702;28;45428;-81
2021/10/11 16:04:55;;;;;;;;;7.75;7.50;;;;;;;;5012769;28;45357;-81
2021/10/11 16:07:20;;;;;;;;;7.25;6.25;;;;;;;;5012437;28;45506;-81
2021/10/11 16:09:46;;;;;;;;;6.25;3.50;;;;;;;;5014366;28;45540;-80
2021/10/11 16:12:11;;;;;;;;;6.75;6.75;;;;;;;;4994112;28;45388;-80
2021/10/11 16:14:36;;;;;;;;;4.50;4.25;;;;;;;;5014086;28;45352;-80
2021/10/11 16:17:02;;;;;;;;;5.00;5.00;;;;;;;;5014451;28;45460;-81
2021/10/11 16:19:27;;;;;;;;;3.50;3.50;;;;;;;;5013670;28;45677;-81
2021/10/11 16:21:53;;;;;;;;;7.00;5.25;;;;;;;;5016661;28;45471;-80
2021/10/11 16:24:19;;;;;;;;;5.25;4.75;;;;;;;;5024375;28;47120;-81
2021/10/11 16:26:47;;;;;;;;;4.75;4.75;;;;;;;;5027812;28;45360;-81
2021/10/11 16:29:12;;;;;;;;;7.50;6.00;;;;;;;;5013775;28;45454;-82
2021/10/11 16:31:38;;;;;;;;;4.25;4.25;;;;;;;;5012881;28;45424;-81
2021/10/11 16:34:03;;;;;;;;;7.25;5.00;;;;;;;;5013204;28;45515;-81
2021/10/11 16:36:29;;;;;;;;;5.00;5.00;;;;;;;;5040655;27;45720;-80
2021/10/11 16:38:54;;;;;;;;;5.00;5.00;;;;;;;;5079396;27;45419;-80
2021/10/11 16:41:19;;;;;;;;;6.00;4.00;;;;;;;;5079042;27;45428;-81
2021/10/11 16:43:45;;;;;;;;;10.50;8.00;;;;;;;;5075299;27;45400;-80
2021/10/11 16:46:11;;;;;;;;;7.00;5.50;;;;;;;;5074076;27;45449;-79
2021/10/11 16:48:36;;;;;;;;;7.50;5.75;;;;;;;;5076376;27;45405;-81
2021/10/11 16:51:03;;;;;;;;;7.00;5.25;;;;;;;;5071215;27;45441;-82
2021/10/11 16:53:34;;;;;;;;;6.75;5.50;;;;;;;;5078167;27;45554;-81